createdAt,value
2023-05-05T00:01:10.254Z,99803.88
2023-05-05T00:03:14.999Z,99814.25
2023-05-05T00:05:18.497Z,99811.63
2023-05-05T00:07:21.326Z,99802.59
2023-05-05T00:09:24.399Z,99804.94
2023-05-05T00:11:27.379Z,99807.94
2023-05-05T00:13:31.913Z,99798.84
2023-05-05T00:15:34.798Z,99802.09
2023-05-05T00:17:37.734Z,99806.25
2023-05-05T00:19:41.273Z,99800.13
2023-05-05T00:21:44.123Z,99804.81
2023-05-05T00:23:47.208Z,99804.47
2023-05-05T00:25:50.269Z,99807.50
2023-05-05T00:27:53.093Z,99801.66
2023-05-05T00:29:57.605Z,99806.38
2023-05-05T00:32:00.498Z,99806.19
2023-05-05T00:34:03.446Z,99799.94
2023-05-05T00:36:06.797Z,99798.91
2023-05-05T00:38:09.937Z,99788.00
2023-05-05T00:40:13.600Z,99792.72
2023-05-05T00:42:16.808Z,99789.44
2023-05-05T00:44:37.371Z,99789.44
2023-05-05T00:46:43.575Z,99793.13
2023-05-05T00:48:47.388Z,99789.00
2023-05-05T00:50:50.419Z,99786.25
2023-05-05T00:52:56.036Z,99791.53
2023-05-05T00:54:59.033Z,99774.31
2023-05-05T00:57:02.640Z,99776.59
2023-05-05T00:59:05.559Z,99779.47
2023-05-05T01:01:08.643Z,99773.50
2023-05-05T01:03:15.676Z,99780.56
2023-05-05T01:05:19.863Z,99772.53
2023-05-05T01:07:31.777Z,99771.41
2023-05-05T01:09:39.550Z,99766.06
2023-05-05T01:11:51.935Z,99768.06
2023-05-05T01:14:03.895Z,99760.97
2023-05-05T01:16:12.817Z,99764.94
2023-05-05T01:18:25.698Z,99767.94
2023-05-05T01:20:36.560Z,99764.31
2023-05-05T01:22:45.200Z,99770.38
2023-05-05T01:25:18.210Z,99767.94
2023-05-05T01:27:41.757Z,99765.47
2023-05-05T01:30:02.546Z,99767.91
2023-05-05T01:32:10.040Z,99770.63
2023-05-05T01:34:17.239Z,99767.84
2023-05-05T01:36:24.586Z,99775.75
2023-05-05T01:38:35.158Z,99782.03
2023-05-05T01:40:42.832Z,99774.25
2023-05-05T01:42:46.871Z,99777.44
2023-05-05T01:44:52.506Z,99780.88
2023-05-05T01:46:55.088Z,99787.31
2023-05-05T01:49:00.138Z,99784.50
2023-05-05T01:51:05.705Z,99781.28
2023-05-05T01:53:10.414Z,99790.13
2023-05-05T01:55:16.398Z,99789.44
2023-05-05T01:57:21.864Z,99791.53
2023-05-05T01:59:25.909Z,99785.00
2023-05-05T02:01:30.779Z,99790.16
2023-05-05T02:03:36.642Z,99788.03
2023-05-05T02:05:43.140Z,99791.09
2023-05-05T02:07:47.100Z,99787.78
2023-05-05T02:09:51.524Z,99787.47
2023-05-05T02:11:55.954Z,99790.34
2023-05-05T02:14:01.646Z,99791.75
2023-05-05T02:16:06.641Z,99788.44
2023-05-05T02:18:11.338Z,99790.72
2023-05-05T02:20:16.580Z,99784.13
2023-05-05T02:22:20.970Z,99775.47
2023-05-05T02:24:24.511Z,99777.66
2023-05-05T02:26:30.688Z,99768.31
2023-05-05T02:28:41.032Z,99770.91
2023-05-05T02:30:45.198Z,99776.69
2023-05-05T02:32:55.605Z,99781.47
2023-05-05T02:35:09.820Z,99783.69
2023-05-05T02:37:20.400Z,99781.66
2023-05-05T02:39:33.320Z,99771.16
2023-05-05T02:41:43.240Z,99774.47
2023-05-05T02:43:58.340Z,99772.63
2023-05-05T02:46:02.476Z,99771.44
2023-05-05T02:48:07.520Z,99771.78
2023-05-05T02:50:16.344Z,99775.94
2023-05-05T02:52:28.199Z,99778.78
2023-05-05T02:54:33.461Z,99780.19
2023-05-05T02:56:43.378Z,99776.66
2023-05-05T02:58:52.308Z,99774.09
2023-05-05T03:01:05.832Z,99772.69
2023-05-05T03:03:18.112Z,99775.84
2023-05-05T03:05:25.623Z,99777.97
2023-05-05T03:07:38.550Z,99768.28
2023-05-05T03:09:52.273Z,99774.28
2023-05-05T03:12:01.375Z,99779.72
2023-05-05T03:14:09.346Z,99777.53
2023-05-05T03:16:13.701Z,99774.28
2023-05-05T03:18:20.704Z,99776.88
2023-05-05T03:20:30.937Z,99772.53
2023-05-05T03:22:38.924Z,99762.78
2023-05-05T03:24:52.025Z,99771.44
2023-05-05T03:26:59.035Z,99769.03
2023-05-05T03:29:08.397Z,99771.91
2023-05-05T03:31:15.656Z,99761.59
2023-05-05T03:33:19.265Z,99772.97
2023-05-05T03:35:23.444Z,99772.72
2023-05-05T03:37:26.520Z,99771.25
2023-05-05T03:39:29.482Z,99779.34
2023-05-05T03:41:34.873Z,99773.38
2023-05-05T03:43:40.030Z,99770.31
2023-05-05T03:45:43.376Z,99767.38
2023-05-05T03:47:47.124Z,99765.84
2023-05-05T03:49:50.090Z,99762.78
2023-05-05T03:51:53.783Z,99760.50
2023-05-05T03:53:56.813Z,99762.59
2023-05-05T03:55:59.746Z,99761.31
2023-05-05T03:58:04.215Z,99755.81
2023-05-05T04:00:11.153Z,99765.25
2023-05-05T04:02:18.597Z,99762.97
2023-05-05T04:04:23.086Z,99763.59
2023-05-05T04:06:26.714Z,99761.41
2023-05-05T04:08:29.968Z,99767.72
2023-05-05T04:10:32.889Z,99771.56
2023-05-05T04:12:36.811Z,99782.59
2023-05-05T04:14:41.190Z,99783.13
2023-05-05T04:16:45.353Z,99793.94
2023-05-05T04:18:48.346Z,99791.97
2023-05-05T04:20:51.531Z,99799.81
2023-05-05T04:22:54.530Z,99796.50
2023-05-05T04:24:58.869Z,99795.84
2023-05-05T04:27:02.616Z,99786.88
2023-05-05T04:29:06.582Z,99796.66
2023-05-05T04:31:11.357Z,99793.09
2023-05-05T04:33:17.489Z,99797.41
2023-05-05T04:35:22.597Z,99795.97
2023-05-05T04:37:26.241Z,99796.75
2023-05-05T04:39:29.848Z,99801.94
2023-05-05T04:41:33.230Z,99811.56
2023-05-05T04:43:36.402Z,99813.97
2023-05-05T04:45:39.374Z,99824.16
2023-05-05T04:47:44.057Z,99826.72
2023-05-05T04:49:47.525Z,99820.25
2023-05-05T04:51:50.359Z,99825.44
2023-05-05T04:53:53.421Z,99822.28
2023-05-05T04:55:56.485Z,99827.44
2023-05-05T04:57:59.543Z,99827.28
2023-05-05T05:00:05.131Z,99835.19
2023-05-05T05:02:08.700Z,99836.50
2023-05-05T05:04:14.123Z,99831.09
2023-05-05T05:06:16.980Z,99828.38
2023-05-05T05:08:19.855Z,99836.56
2023-05-05T05:10:22.976Z,99831.75
2023-05-05T05:12:25.892Z,99825.84
2023-05-05T05:14:29.103Z,99829.19
2023-05-05T05:16:32.215Z,99832.06
2023-05-05T05:18:35.404Z,99830.59
2023-05-05T05:20:39.991Z,99830.47
2023-05-05T05:22:43.790Z,99824.44
2023-05-05T05:24:52.550Z,99830.44
2023-05-05T05:26:55.849Z,99828.00
2023-05-05T05:28:58.708Z,99833.38
2023-05-05T05:31:01.799Z,99836.28
2023-05-05T05:33:05.275Z,99834.19
2023-05-05T05:35:08.806Z,99832.53
2023-05-05T05:37:13.940Z,99834.78
2023-05-05T05:39:17.414Z,99834.72
2023-05-05T05:41:20.432Z,99837.97
2023-05-05T05:43:23.433Z,99834.31
2023-05-05T05:45:26.470Z,99838.38
2023-05-05T05:47:29.578Z,99835.34
2023-05-05T05:49:33.105Z,99834.84
2023-05-05T05:51:37.300Z,99831.50
2023-05-05T05:53:41.614Z,99832.50
2023-05-05T05:55:46.850Z,99838.63
2023-05-05T05:57:50.583Z,99832.13
2023-05-05T05:59:54.333Z,99840.63
2023-05-05T06:01:57.965Z,99838.22
2023-05-05T06:04:01.899Z,99843.25
2023-05-05T06:06:05.526Z,99848.09
2023-05-05T06:08:08.823Z,99840.69
2023-05-05T06:10:26.427Z,99839.56
2023-05-05T06:12:34.688Z,99839.66
2023-05-05T06:14:38.579Z,99837.28
2023-05-05T06:16:41.724Z,99841.53
2023-05-05T06:18:48.727Z,99838.81
2023-05-05T06:20:52.693Z,99837.09
2023-05-05T06:22:58.474Z,99835.88
2023-05-05T06:25:02.915Z,99835.09
2023-05-05T06:27:07.280Z,99832.06
2023-05-05T06:29:12.225Z,99838.44
2023-05-05T06:31:15.490Z,99843.50
2023-05-05T06:33:18.465Z,99834.19
2023-05-05T06:35:22.627Z,99843.88
2023-05-05T06:37:25.613Z,99845.22
2023-05-05T06:39:28.395Z,99836.78
2023-05-05T06:41:31.325Z,99847.53
2023-05-05T06:43:35.973Z,99847.78
2023-05-05T06:45:43.977Z,99839.56
2023-05-05T06:47:47.011Z,99838.56
2023-05-05T06:49:50.124Z,99847.19
2023-05-05T06:51:53.016Z,99840.44
2023-05-05T06:53:55.985Z,99848.78
2023-05-05T06:55:59.118Z,99840.53
2023-05-05T06:58:02.102Z,99841.25
2023-05-05T07:00:11.564Z,99836.19
2023-05-05T07:02:14.582Z,99841.44
2023-05-05T07:04:17.678Z,99835.47
2023-05-05T07:06:20.716Z,99829.81
2023-05-05T07:08:23.648Z,99833.03
2023-05-05T07:10:28.123Z,99832.78
2023-05-05T07:12:31.560Z,99833.81
2023-05-05T07:14:34.617Z,99836.03
2023-05-05T07:16:39.069Z,99835.31
2023-05-05T07:18:41.940Z,99838.53
2023-05-05T07:20:45.231Z,99827.78
2023-05-05T07:22:48.087Z,99836.03
2023-05-05T07:24:53.506Z,99827.88
2023-05-05T07:26:56.081Z,99828.47
2023-05-05T07:28:59.559Z,99827.47
2023-05-05T07:31:02.672Z,99834.19
2023-05-05T07:33:07.164Z,99840.66
2023-05-05T07:35:10.795Z,99825.72
2023-05-05T07:37:13.918Z,99833.09
2023-05-05T07:39:18.750Z,99832.63
2023-05-05T07:41:21.701Z,99838.47
2023-05-05T07:43:24.730Z,99830.78
2023-05-05T07:45:29.206Z,99827.53
2023-05-05T07:47:32.340Z,99827.72
2023-05-05T07:49:36.954Z,99834.03
2023-05-05T07:51:39.996Z,99823.41
2023-05-05T07:53:43.307Z,99833.22
2023-05-05T07:55:46.692Z,99823.72
2023-05-05T07:57:50.115Z,99821.34
2023-05-05T07:59:53.076Z,99826.66
2023-05-05T08:01:55.999Z,99831.63
2023-05-05T08:03:59.067Z,99825.09
2023-05-05T08:06:11.342Z,99827.25
2023-05-05T08:08:14.404Z,99829.75
2023-05-05T08:10:17.298Z,99832.19
2023-05-05T08:12:20.188Z,99826.16
2023-05-05T08:14:23.381Z,99825.66
2023-05-05T08:16:26.475Z,99822.91
2023-05-05T08:18:29.417Z,99822.63
2023-05-05T08:20:32.613Z,99823.66
2023-05-05T08:22:36.997Z,99820.47
2023-05-05T08:24:39.907Z,99816.31
2023-05-05T08:26:42.868Z,99820.19
2023-05-05T08:28:47.016Z,99815.50
2023-05-05T08:30:51.106Z,99817.19
2023-05-05T08:32:54.399Z,99813.88
2023-05-05T08:34:57.488Z,99810.84
2023-05-05T08:37:00.421Z,99812.25
2023-05-05T08:39:04.971Z,99807.09
2023-05-05T08:41:10.326Z,99807.59
2023-05-05T08:43:13.220Z,99801.13
2023-05-05T08:45:16.531Z,99802.47
2023-05-05T08:47:20.866Z,99807.06
2023-05-05T08:49:25.776Z,99807.06
2023-05-05T08:51:33.739Z,99806.81
2023-05-05T08:53:47.565Z,99805.44
2023-05-05T08:55:52.905Z,99808.69
2023-05-05T08:57:56.991Z,99808.28
2023-05-05T09:00:01.832Z,99807.66
2023-05-05T09:02:07.640Z,99811.72
2023-05-05T09:04:11.361Z,99814.97
2023-05-05T09:06:14.468Z,99815.28
2023-05-05T09:08:18.224Z,99821.53
2023-05-05T09:10:21.530Z,99811.69
2023-05-05T09:12:30.426Z,99812.56
2023-05-05T09:16:53.368Z,99812.53
2023-05-05T09:19:03.669Z,99809.25
2023-05-05T09:21:20.272Z,99803.28
2023-05-05T09:23:23.615Z,99803.25
2023-05-05T09:25:26.650Z,99811.00
2023-05-05T09:27:31.345Z,99807.31
2023-05-05T09:29:34.369Z,99799.03
2023-05-05T09:31:38.133Z,99802.59
2023-05-05T09:33:41.137Z,99811.19
2023-05-05T09:35:51.885Z,99806.91
2023-05-05T09:37:55.032Z,99803.34
2023-05-05T09:40:03.453Z,99802.59
2023-05-05T09:42:06.504Z,99800.59
2023-05-05T09:44:11.790Z,99799.94
2023-05-05T09:46:15.104Z,99801.00
2023-05-05T09:48:26.103Z,99793.53
2023-05-05T09:50:31.230Z,99798.47
2023-05-05T09:52:34.307Z,99795.38
2023-05-05T09:54:37.355Z,99794.72
2023-05-05T09:56:40.832Z,99800.13
2023-05-05T09:58:43.972Z,99799.00
2023-05-05T10:00:48.497Z,99792.25
2023-05-05T10:02:51.628Z,99797.72
2023-05-05T10:05:06.484Z,99785.84
2023-05-05T10:07:19.130Z,99790.38
2023-05-05T10:09:22.175Z,99787.13
2023-05-05T10:11:25.276Z,99792.00
2023-05-05T10:13:29.632Z,99789.88
2023-05-05T10:15:32.509Z,99787.97
2023-05-05T10:18:02.312Z,99782.56
2023-05-05T10:20:11.122Z,99786.84
2023-05-05T10:22:14.588Z,99790.41
2023-05-05T10:24:26.341Z,99797.41
2023-05-05T10:26:34.903Z,99782.31
2023-05-05T10:28:44.484Z,99785.19
2023-05-05T10:30:52.005Z,99784.13
2023-05-05T10:33:17.400Z,99782.34
2023-05-05T10:35:27.937Z,99781.63
2023-05-05T10:37:31.418Z,99778.91
2023-05-05T10:39:37.115Z,99782.38
2023-05-05T10:41:40.094Z,99786.03
2023-05-05T10:43:43.538Z,99776.31
2023-05-05T10:45:46.822Z,99775.00
2023-05-05T10:47:51.512Z,99765.56
2023-05-05T10:50:02.821Z,99766.41
2023-05-05T10:52:14.480Z,99762.19
2023-05-05T10:54:23.638Z,99764.25
2023-05-05T10:56:31.584Z,99769.13
2023-05-05T10:58:46.894Z,99759.94
2023-05-05T11:00:54.861Z,99759.66
2023-05-05T11:03:22.588Z,99756.19
2023-05-05T11:05:27.288Z,99760.50
2023-05-05T11:09:33.572Z,99746.66
2023-05-05T11:12:04.655Z,99748.31
2023-05-05T11:14:23.095Z,99745.72
2023-05-05T11:16:48.124Z,99749.38
2023-05-05T11:18:51.307Z,99741.38
2023-05-05T11:21:15.960Z,99744.28
2023-05-05T11:23:25.032Z,99737.97
2023-05-05T11:25:47.488Z,99745.22
2023-05-05T11:28:08.844Z,99742.84
2023-05-05T11:30:13.496Z,99738.00
2023-05-05T11:32:16.546Z,99738.41
2023-05-05T11:34:29.256Z,99735.88
2023-05-05T11:36:41.285Z,99736.00
2023-05-05T11:39:00.200Z,99740.31
2023-05-05T11:41:12.597Z,99731.31
2023-05-05T11:43:19.418Z,99740.44
2023-05-05T11:45:24.051Z,99731.72
2023-05-05T11:47:29.194Z,99740.75
2023-05-05T11:49:33.395Z,99736.91
2023-05-05T11:51:36.983Z,99729.66
2023-05-05T11:53:44.756Z,99724.78
2023-05-05T11:55:47.718Z,99731.53
2023-05-05T11:57:50.955Z,99725.69
2023-05-05T11:59:55.695Z,99718.03
2023-05-05T12:01:58.915Z,99724.09
2023-05-05T12:04:02.016Z,99728.59
2023-05-05T12:06:05.972Z,99726.34
2023-05-05T12:08:08.976Z,99726.16
2023-05-05T12:10:13.606Z,99716.25
2023-05-05T12:12:17.187Z,99717.44
2023-05-05T12:14:21.273Z,99713.56
2023-05-05T12:16:24.241Z,99709.34
2023-05-05T12:18:27.220Z,99713.91
2023-05-05T12:20:32.660Z,99700.31
2023-05-05T12:22:35.265Z,99703.13
2023-05-05T12:24:38.055Z,99703.75
2023-05-05T12:26:42.810Z,99711.16
2023-05-05T12:28:49.038Z,99709.13
2023-05-05T12:30:59.218Z,99701.97
2023-05-05T12:33:03.245Z,99699.16
2023-05-05T12:35:08.126Z,99700.31
2023-05-05T12:37:11.589Z,99695.47
2023-05-05T12:39:14.477Z,99705.44
2023-05-05T12:41:20.029Z,99690.94
2023-05-05T12:43:32.056Z,99687.38
2023-05-05T12:45:35.046Z,99679.13
2023-05-05T12:47:38.724Z,99678.22
2023-05-05T12:49:49.142Z,99674.38
2023-05-05T12:51:56.759Z,99673.50
2023-05-05T12:54:05.569Z,99678.94
2023-05-05T12:56:29.439Z,99678.09
2023-05-05T13:01:11.189Z,99672.03
2023-05-05T13:03:20.524Z,99665.84
2023-05-05T13:05:33.523Z,99667.22
2023-05-05T13:07:37.103Z,99663.50
2023-05-05T13:09:40.410Z,99660.09
2023-05-05T13:11:43.545Z,99656.56
2023-05-05T13:13:46.616Z,99653.72
2023-05-05T13:15:49.591Z,99642.91
2023-05-05T13:18:00.415Z,99647.22
2023-05-05T13:20:04.146Z,99647.44
2023-05-05T13:22:06.948Z,99631.38
2023-05-05T13:24:23.536Z,99632.59
2023-05-05T13:26:31.474Z,99630.56
2023-05-05T13:28:34.458Z,99633.84
2023-05-05T13:30:37.376Z,99624.44
2023-05-05T13:32:40.317Z,99631.69
2023-05-05T13:34:44.807Z,99623.38
2023-05-05T13:36:47.749Z,99628.97
2023-05-05T13:38:50.653Z,99631.16
2023-05-05T13:40:54.071Z,99629.03
2023-05-05T13:42:57.105Z,99619.22
2023-05-05T13:45:00.027Z,99619.78
2023-05-05T13:47:03.337Z,99620.06
2023-05-05T13:49:06.408Z,99609.09
2023-05-05T13:51:10.769Z,99609.16
2023-05-05T13:53:13.779Z,99601.09
2023-05-05T13:55:17.121Z,99611.66
2023-05-05T13:57:19.968Z,99613.09
2023-05-05T13:59:23.325Z,99607.59
2023-05-05T14:01:26.496Z,99603.19
2023-05-05T14:03:29.626Z,99599.78
2023-05-05T14:05:33.829Z,99605.19
2023-05-05T14:07:38.262Z,99592.72
2023-05-05T14:09:41.229Z,99591.97
2023-05-05T14:11:44.181Z,99594.16
2023-05-05T14:13:47.778Z,99592.31
2023-05-05T14:15:52.857Z,99592.97
2023-05-05T14:17:55.916Z,99592.31
2023-05-05T14:19:58.858Z,99586.72
2023-05-05T14:22:01.852Z,99584.69
2023-05-05T14:24:07.097Z,99595.28
2023-05-05T14:26:10.192Z,99589.97
2023-05-05T14:28:13.118Z,99590.38
2023-05-05T14:30:16.277Z,99598.63
2023-05-05T14:32:19.108Z,99595.88
2023-05-05T14:34:22.188Z,99598.38
2023-05-05T14:36:25.115Z,99599.13
2023-05-05T14:38:28.092Z,99593.91
2023-05-05T14:40:32.474Z,99592.31
2023-05-05T14:42:35.439Z,99595.84
2023-05-05T14:44:38.293Z,99587.81
2023-05-05T14:46:41.745Z,99582.09
2023-05-05T14:48:46.870Z,99591.22
2023-05-05T14:50:50.295Z,99583.06
2023-05-05T14:52:53.312Z,99592.09
2023-05-05T14:54:56.209Z,99584.28
2023-05-05T14:57:00.683Z,99581.41
2023-05-05T14:59:03.858Z,99576.13
2023-05-05T15:01:07.210Z,99584.50
2023-05-05T15:03:10.275Z,99581.97
2023-05-05T15:05:13.322Z,99581.00
2023-05-05T15:07:16.271Z,99574.34
2023-05-05T15:09:20.507Z,99577.25
2023-05-05T15:11:23.535Z,99578.97
2023-05-05T15:13:28.019Z,99570.06
2023-05-05T15:15:31.320Z,99567.44
2023-05-05T15:17:34.339Z,99568.06
2023-05-05T15:19:37.706Z,99565.16
2023-05-05T15:21:40.697Z,99565.16
2023-05-05T15:23:43.688Z,99561.66
2023-05-05T15:25:46.655Z,99559.94
2023-05-05T15:27:49.817Z,99564.53
2023-05-05T15:29:54.789Z,99558.59
2023-05-05T15:31:57.981Z,99556.91
2023-05-05T15:34:00.934Z,99554.50
2023-05-05T15:36:04.222Z,99556.31
2023-05-05T15:38:07.458Z,99556.63
2023-05-05T15:40:11.297Z,99555.91
2023-05-05T15:42:14.103Z,99551.19
2023-05-05T15:44:17.515Z,99551.59
2023-05-05T15:46:22.029Z,99545.72
2023-05-05T15:48:25.146Z,99551.72
2023-05-05T15:50:28.001Z,99550.19
2023-05-05T15:52:30.995Z,99549.19
2023-05-05T15:54:34.145Z,99546.84
2023-05-05T15:56:37.223Z,99547.78
2023-05-05T15:58:40.078Z,99548.50
2023-05-05T16:00:43.069Z,99549.44
2023-05-05T16:02:47.606Z,99546.63
2023-05-05T16:04:50.813Z,99544.09
2023-05-05T16:06:54.029Z,99538.81
2023-05-05T16:08:58.968Z,99539.03
2023-05-05T16:11:02.113Z,99535.50
2023-05-05T16:13:05.116Z,99526.81
2023-05-05T16:15:09.281Z,99535.47
2023-05-05T16:17:12.372Z,99534.56
2023-05-05T16:19:16.930Z,99535.25
2023-05-05T16:21:20.215Z,99528.53
2023-05-05T16:23:23.246Z,99539.53
2023-05-05T16:25:26.196Z,99533.78
2023-05-05T16:27:29.170Z,99529.94
2023-05-05T16:29:32.245Z,99533.38
2023-05-05T16:31:35.341Z,99531.19
2023-05-05T16:33:43.896Z,99535.09
2023-05-05T16:35:48.539Z,99524.19
2023-05-05T16:37:52.803Z,99524.84
2023-05-05T16:39:55.673Z,99523.16
2023-05-05T16:41:58.740Z,99520.75
2023-05-05T16:44:01.685Z,99522.41
2023-05-05T16:46:05.026Z,99520.03
2023-05-05T16:48:09.150Z,99520.81
2023-05-05T16:50:12.291Z,99521.09
2023-05-05T16:52:16.774Z,99520.03
2023-05-05T16:54:19.799Z,99524.66
2023-05-05T16:56:22.685Z,99518.44
2023-05-05T16:58:25.916Z,99519.09
2023-05-05T17:00:28.723Z,99525.63
2023-05-05T17:02:32.006Z,99521.78
2023-05-05T17:04:34.854Z,99527.28
2023-05-05T17:06:37.924Z,99531.91
2023-05-05T17:08:42.657Z,99545.88
2023-05-05T17:10:46.538Z,99537.16
2023-05-05T17:12:49.505Z,99542.09
2023-05-05T17:14:52.494Z,99539.16
2023-05-05T17:16:55.357Z,99543.81
2023-05-05T17:18:58.354Z,99538.34
2023-05-05T17:21:01.287Z,99536.72
2023-05-05T17:23:05.290Z,99541.91
2023-05-05T17:25:11.068Z,99538.38
2023-05-05T17:27:14.343Z,99538.09
2023-05-05T17:29:21.835Z,99536.16
2023-05-05T17:31:24.819Z,99548.16
2023-05-05T17:33:27.735Z,99555.19
2023-05-05T17:35:30.743Z,99551.63
2023-05-05T17:37:34.080Z,99545.94
2023-05-05T17:39:37.005Z,99554.03
2023-05-05T17:41:42.705Z,99550.78
2023-05-05T17:43:45.663Z,99558.97
2023-05-05T17:45:48.694Z,99553.81
2023-05-05T17:47:51.859Z,99556.16
2023-05-05T17:49:56.493Z,99558.31
2023-05-05T17:51:59.638Z,99557.72
2023-05-05T17:54:02.531Z,99551.97
2023-05-05T17:56:08.581Z,99555.88
2023-05-05T17:58:13.426Z,99556.56
2023-05-05T18:00:17.027Z,99555.09
2023-05-05T18:02:20.096Z,99556.31
2023-05-05T18:04:23.198Z,99549.88
2023-05-05T18:06:27.425Z,99549.53
2023-05-05T18:08:30.514Z,99548.47
2023-05-05T18:10:33.878Z,99550.31
2023-05-05T18:12:37.264Z,99557.91
2023-05-05T18:14:42.269Z,99560.16
2023-05-05T18:16:50.948Z,99556.97
2023-05-05T18:18:54.578Z,99556.19
2023-05-05T18:20:58.164Z,99560.34
2023-05-05T18:23:01.639Z,99558.59
2023-05-05T18:25:07.981Z,99569.00
2023-05-05T18:27:11.410Z,99563.31
2023-05-05T18:29:16.307Z,99576.91
2023-05-05T18:31:21.769Z,99583.59
2023-05-05T18:33:24.595Z,99580.31
2023-05-05T18:35:28.517Z,99589.16
2023-05-05T18:37:31.908Z,99591.22
2023-05-05T18:39:34.757Z,99595.50
2023-05-05T18:41:37.700Z,99600.53
2023-05-05T18:43:41.377Z,99597.25
2023-05-05T18:45:44.291Z,99600.72
2023-05-05T18:47:48.714Z,99600.97
2023-05-05T18:49:51.713Z,99599.28
2023-05-05T18:51:56.038Z,99594.81
2023-05-05T18:53:59.055Z,99600.38
2023-05-05T18:56:02.039Z,99597.66
2023-05-05T18:58:04.989Z,99595.13
2023-05-05T19:00:09.755Z,99598.28
2023-05-05T19:02:14.792Z,99598.53
2023-05-05T19:04:30.668Z,99604.41
2023-05-05T19:06:34.727Z,99600.25
2023-05-05T19:08:37.959Z,99603.78
2023-05-05T19:10:42.071Z,99601.00
2023-05-05T19:12:45.073Z,99592.94
2023-05-05T19:14:48.020Z,99597.66
2023-05-05T19:16:51.426Z,99602.72
2023-05-05T19:18:58.905Z,99600.28
2023-05-05T19:21:03.410Z,99600.84
2023-05-05T19:23:07.372Z,99603.19
2023-05-05T19:25:11.222Z,99601.09
2023-05-05T19:27:16.567Z,99594.75
2023-05-05T19:29:20.178Z,99595.47
2023-05-05T19:31:27.870Z,99596.31
2023-05-05T19:33:30.947Z,99590.66
2023-05-05T19:35:33.839Z,99587.38
2023-05-05T19:37:38.303Z,99596.31
2023-05-05T19:39:43.403Z,99589.97
2023-05-05T19:41:46.276Z,99584.81
2023-05-05T19:43:50.278Z,99590.78
2023-05-05T19:45:53.459Z,99583.63
2023-05-05T19:47:57.126Z,99590.66
2023-05-05T19:50:00.135Z,99593.44
2023-05-05T19:52:03.627Z,99590.38
2023-05-05T19:54:08.079Z,99595.59
2023-05-05T19:56:11.911Z,99592.72
2023-05-05T19:58:14.807Z,99596.94
2023-05-05T20:00:18.682Z,99595.41
2023-05-05T20:02:26.904Z,99595.72
2023-05-05T20:04:29.863Z,99593.94
2023-05-05T20:06:33.333Z,99587.53
2023-05-05T20:08:36.223Z,99586.94
2023-05-05T20:10:40.695Z,99590.19
2023-05-05T20:12:49.320Z,99588.22
2023-05-05T20:14:52.575Z,99584.56
2023-05-05T20:16:55.433Z,99577.91
2023-05-05T20:18:58.390Z,99574.09
2023-05-05T20:21:02.407Z,99568.59
2023-05-05T20:23:05.332Z,99571.16
2023-05-05T20:25:09.264Z,99571.09
2023-05-05T20:27:13.620Z,99571.81
2023-05-05T20:29:16.646Z,99579.63
2023-05-05T20:31:19.615Z,99569.19
2023-05-05T20:33:22.507Z,99576.06
2023-05-05T20:35:25.979Z,99573.94
2023-05-05T20:37:28.805Z,99573.41
2023-05-05T20:39:31.722Z,99571.50
2023-05-05T20:41:36.524Z,99568.72
2023-05-05T20:43:41.309Z,99562.72
2023-05-05T20:45:44.593Z,99564.44
2023-05-05T20:47:47.697Z,99563.56
2023-05-05T20:49:52.606Z,99571.00
2023-05-05T20:51:55.730Z,99558.13
2023-05-05T20:53:58.680Z,99563.56
2023-05-05T20:56:01.741Z,99560.63
2023-05-05T20:58:05.833Z,99564.63
2023-05-05T21:00:11.672Z,99559.63
2023-05-05T21:02:14.878Z,99560.28
2023-05-05T21:04:17.878Z,99556.50
2023-05-05T21:06:20.825Z,99541.47
2023-05-05T21:08:23.866Z,99544.00
2023-05-05T21:10:26.912Z,99544.66
2023-05-05T21:12:30.555Z,99546.22
2023-05-05T21:14:33.655Z,99552.34
2023-05-05T21:16:38.211Z,99548.41
2023-05-05T21:18:41.048Z,99547.56
2023-05-05T21:20:43.993Z,99544.97
2023-05-05T21:22:46.872Z,99541.72
2023-05-05T21:24:49.855Z,99543.03
2023-05-05T21:26:52.796Z,99536.22
2023-05-05T21:28:56.076Z,99534.66
2023-05-05T21:31:19.887Z,99531.47
2023-05-05T21:33:23.549Z,99532.25
2023-05-05T21:35:26.407Z,99536.06
2023-05-05T21:37:29.549Z,99529.38
2023-05-05T21:39:35.686Z,99533.94
2023-05-05T21:41:39.010Z,99536.00
2023-05-05T21:43:42.147Z,99527.84
2023-05-05T21:45:45.099Z,99534.91
2023-05-05T21:47:47.972Z,99531.41
2023-05-05T21:49:52.335Z,99532.81
2023-05-05T21:51:55.173Z,99530.63
2023-05-05T21:53:59.221Z,99528.72
2023-05-05T21:56:02.165Z,99531.00
2023-05-05T21:58:05.172Z,99528.91
2023-05-05T22:00:09.430Z,99537.13
2023-05-05T22:02:15.718Z,99538.75
2023-05-05T22:04:18.688Z,99530.03
2023-05-05T22:06:23.338Z,99533.13
2023-05-05T22:08:27.149Z,99527.84
2023-05-05T22:10:30.113Z,99535.69
2023-05-05T22:12:33.179Z,99525.72
2023-05-05T22:14:36.623Z,99531.03
2023-05-05T22:16:39.558Z,99529.31
2023-05-05T22:18:42.568Z,99533.28
2023-05-05T22:20:45.608Z,99520.72
2023-05-05T22:22:50.185Z,99527.13
2023-05-05T22:24:53.135Z,99521.00
2023-05-05T22:26:57.640Z,99518.91
2023-05-05T22:29:00.848Z,99524.66
2023-05-05T22:31:03.904Z,99524.44
2023-05-05T22:33:06.876Z,99522.81
2023-05-05T22:35:10.458Z,99523.69
2023-05-05T22:37:14.316Z,99513.84
2023-05-05T22:39:18.977Z,99520.28
2023-05-05T22:41:21.968Z,99517.63
2023-05-05T22:43:24.932Z,99516.88
2023-05-05T22:45:28.140Z,99521.53
2023-05-05T22:47:31.334Z,99520.06
2023-05-05T22:49:34.334Z,99519.22
2023-05-05T22:51:38.206Z,99519.28
2023-05-05T22:53:41.185Z,99513.34
2023-05-05T22:55:45.979Z,99514.16
2023-05-05T22:57:48.896Z,99512.25
2023-05-05T22:59:51.968Z,99521.97
2023-05-05T23:01:55.015Z,99528.84
2023-05-05T23:03:57.991Z,99528.81
2023-05-05T23:06:00.965Z,99532.13
2023-05-05T23:08:04.090Z,99529.25
2023-05-05T23:10:08.026Z,99522.41
2023-05-05T23:12:12.440Z,99518.09
2023-05-05T23:14:17.175Z,99520.72
2023-05-05T23:16:20.318Z,99511.59
2023-05-05T23:18:23.280Z,99509.28
2023-05-05T23:20:26.501Z,99512.88
2023-05-05T23:22:29.395Z,99512.63
2023-05-05T23:24:32.467Z,99504.13
2023-05-05T23:26:35.357Z,99508.28
2023-05-05T23:28:39.769Z,99495.97
2023-05-05T23:30:42.904Z,99501.22
2023-05-05T23:32:46.275Z,99496.25
2023-05-05T23:34:49.418Z,99499.72
2023-05-05T23:36:52.440Z,99493.16
2023-05-05T23:38:55.358Z,99494.16
2023-05-05T23:40:58.269Z,99489.84
2023-05-05T23:43:01.379Z,99486.13
2023-05-05T23:45:06.672Z,99482.22
2023-05-05T23:47:09.529Z,99481.19
2023-05-05T23:49:12.678Z,99481.44
2023-05-05T23:51:15.817Z,99483.28
2023-05-05T23:53:18.743Z,99477.53
2023-05-05T23:55:21.968Z,99472.56
2023-05-05T23:57:25.003Z,99477.75
2023-05-05T23:59:27.860Z,99470.31
